Terminal Aerodrome Forecast
Issued by NWS Mt. Holly, NJ

Home | Current Version | Previous Version | Text Only | Print | Product List | Glossary On
Versions: 1 2 3 4 5 6 7 8 9 10 11 12 13 14 15 16 17 18 19 20
881
FTUS41 KPHI 181727
TAFACY
TAF
KACY 181727Z 1818/1918 19012G20KT P6SM BKN130
     FM182100 19013G20KT P6SM VCSH OVC070
     FM190000 19014G26KT P6SM OVC060
     FM190600 20021G34KT P6SM VCSH OVC030
     FM190900 20021G34KT 5SM SHRA SCT008 OVC015
     FM191200 23020G36KT P6SM OVC025
     FM191400 26022G39KT P6SM BKN040=

USA.gov is the U.S. government's official web portal to all federal, state and local government web resources and services.